createdAt,value
2022-11-05T00:00:38.471Z,12.66
2022-11-05T00:03:29.429Z,12.62
2022-11-05T00:06:16.129Z,12.64
2022-11-05T00:09:02.712Z,12.68
2022-11-05T00:11:49.378Z,12.74
2022-11-05T00:14:35.898Z,12.79
2022-11-05T00:17:03.734Z,12.85
2022-11-05T00:19:31.737Z,12.90
2022-11-05T00:22:18.406Z,12.89
2022-11-05T00:25:04.948Z,12.84
2022-11-05T00:27:34.466Z,12.83
2022-11-05T00:30:07.509Z,12.83
2022-11-05T00:32:37.755Z,12.83
2022-11-05T00:35:08.868Z,12.86
2022-11-05T00:37:37.372Z,12.89
2022-11-05T00:40:06.636Z,12.92
2022-11-05T00:42:53.254Z,12.94
2022-11-05T00:45:21.750Z,12.96
2022-11-05T00:48:19.259Z,12.97
2022-11-05T00:50:47.194Z,12.99
2022-11-05T00:53:15.226Z,13.01
2022-11-05T00:55:45.413Z,13.01
2022-11-05T00:58:14.788Z,12.98
2022-11-05T01:00:45.366Z,12.97
2022-11-05T01:03:15.725Z,12.96
2022-11-05T01:05:49.247Z,12.92
2022-11-05T01:08:20.195Z,12.91
2022-11-05T01:10:54.575Z,12.89
2022-11-05T01:13:30.595Z,12.88
2022-11-05T01:16:08.827Z,12.84
2022-11-05T01:18:39.037Z,12.78
2022-11-05T01:21:20.920Z,12.77
2022-11-05T01:23:48.927Z,12.79
2022-11-05T01:26:18.188Z,12.79
2022-11-05T01:28:52.599Z,12.81
2022-11-05T01:31:23.669Z,12.78
2022-11-05T01:33:51.713Z,12.78
2022-11-05T01:36:19.644Z,12.81
2022-11-05T01:38:47.599Z,12.82
2022-11-05T01:41:15.955Z,12.83
2022-11-05T01:43:56.626Z,12.84
2022-11-05T01:46:40.501Z,12.85
2022-11-05T01:49:08.970Z,12.86
2022-11-05T01:51:37.093Z,12.89
2022-11-05T01:54:13.212Z,12.95
2022-11-05T01:56:50.591Z,13.01
2022-11-05T01:59:26.776Z,13.05
2022-11-05T02:01:55.188Z,13.08
2022-11-05T02:04:38.896Z,13.11
2022-11-05T02:07:09.417Z,13.11
2022-11-05T02:09:46.622Z,13.09
2022-11-05T02:12:14.908Z,13.05
2022-11-05T02:14:43.338Z,12.99
2022-11-05T02:17:30.204Z,12.92
2022-11-05T02:20:04.272Z,12.88
2022-11-05T02:22:53.489Z,12.83
2022-11-05T02:25:42.820Z,12.81
2022-11-05T02:28:49.499Z,12.80
2022-11-05T02:31:45.021Z,12.78
2022-11-05T02:34:41.412Z,12.76
2022-11-05T02:37:39.397Z,12.74
2022-11-05T02:40:28.777Z,12.70
2022-11-05T02:43:05.433Z,12.64
2022-11-05T02:46:03.544Z,12.60
2022-11-05T02:48:46.275Z,12.57
2022-11-05T02:51:30.761Z,12.54
2022-11-05T02:54:06.332Z,12.52
2022-11-05T02:56:39.593Z,12.53
2022-11-05T02:59:07.478Z,12.50
2022-11-05T03:01:37.676Z,12.47
2022-11-05T03:04:10.730Z,12.43
2022-11-05T03:07:03.412Z,12.39
2022-11-05T03:10:05.695Z,12.34
2022-11-05T03:13:07.351Z,12.20
2022-11-05T03:15:42.958Z,12.16
2022-11-05T03:18:31.765Z,12.08
2022-11-05T03:21:12.140Z,11.94
2022-11-05T03:23:48.694Z,11.88
2022-11-05T03:26:34.922Z,11.78
2022-11-05T03:29:09.060Z,11.71
2022-11-05T03:31:40.556Z,11.67
2022-11-05T03:34:12.108Z,11.68
2022-11-05T03:36:48.781Z,11.65
2022-11-05T03:39:21.916Z,11.59
2022-11-05T03:41:53.846Z,11.59
2022-11-05T03:44:32.799Z,11.60
2022-11-05T03:47:08.930Z,11.54
2022-11-05T03:49:41.662Z,11.57
2022-11-05T03:52:22.098Z,11.63
2022-11-05T03:54:50.482Z,11.65
2022-11-05T03:57:24.098Z,11.72
2022-11-05T03:59:52.199Z,11.76
2022-11-05T04:02:23.843Z,11.87
2022-11-05T04:04:52.770Z,11.92
2022-11-05T04:07:39.272Z,11.96
2022-11-05T04:10:25.973Z,11.95
2022-11-05T04:13:15.932Z,11.94
2022-11-05T04:16:02.499Z,11.91
2022-11-05T04:18:30.374Z,11.91
2022-11-05T04:21:16.898Z,11.92
2022-11-05T04:24:03.485Z,11.94
2022-11-05T04:26:31.734Z,11.93
2022-11-05T04:29:18.305Z,11.93
2022-11-05T04:31:46.208Z,11.96
2022-11-05T04:34:16.206Z,11.97
2022-11-05T04:36:44.189Z,11.96
2022-11-05T04:39:12.187Z,11.99
2022-11-05T04:41:40.124Z,12.01
2022-11-05T04:44:08.007Z,12.02
2022-11-05T04:46:36.084Z,12.02
2022-11-05T04:49:04.068Z,11.97
2022-11-05T04:51:32.109Z,12.01
2022-11-05T04:54:00.474Z,11.97
2022-11-05T04:56:28.443Z,12.01
2022-11-05T04:58:56.431Z,11.98
2022-11-05T05:01:25.552Z,11.92
2022-11-05T05:03:54.675Z,11.91
2022-11-05T05:06:24.154Z,11.90
2022-11-05T05:08:52.887Z,11.83
2022-11-05T05:11:21.913Z,11.86
2022-11-05T05:13:50.157Z,11.93
2022-11-05T05:16:22.094Z,11.97
2022-11-05T05:18:50.863Z,11.99
2022-11-05T05:21:39.065Z,12.00
2022-11-05T05:24:13.065Z,12.02
2022-11-05T05:26:44.197Z,12.06
2022-11-05T05:29:12.371Z,12.11
2022-11-05T05:31:41.000Z,12.15
2022-11-05T05:34:12.518Z,12.17
2022-11-05T05:36:40.511Z,12.16
2022-11-05T05:39:10.787Z,12.18
2022-11-05T05:41:38.724Z,12.26
2022-11-05T05:44:06.915Z,12.35
2022-11-05T05:46:34.940Z,12.42
2022-11-05T05:49:05.520Z,12.44
2022-11-05T05:51:37.577Z,12.47
2022-11-05T05:54:05.744Z,12.55
2022-11-05T05:56:35.463Z,12.66
2022-11-05T05:59:05.307Z,12.79
2022-11-05T06:01:34.115Z,12.99
2022-11-05T06:04:02.446Z,13.20
2022-11-05T06:06:33.757Z,13.40
2022-11-05T06:09:02.161Z,13.69
2022-11-05T06:11:40.148Z,13.96
2022-11-05T06:14:14.385Z,14.18
2022-11-05T06:16:42.433Z,14.37
2022-11-05T06:19:13.615Z,14.47
2022-11-05T06:21:41.838Z,14.55
2022-11-05T06:24:10.407Z,14.63
2022-11-05T06:26:42.864Z,14.76
2022-11-05T06:29:10.852Z,14.87
2022-11-05T06:31:38.796Z,14.92
2022-11-05T06:34:06.788Z,15.00
2022-11-05T06:36:34.742Z,15.14
2022-11-05T06:39:02.984Z,15.35
2022-11-05T06:41:30.925Z,15.58
2022-11-05T06:43:58.861Z,15.87
2022-11-05T06:46:26.781Z,16.46
2022-11-05T06:48:54.768Z,17.16
2022-11-05T06:51:22.750Z,17.80
2022-11-05T06:53:51.886Z,18.41
2022-11-05T06:56:19.821Z,18.88
2022-11-05T06:58:48.260Z,19.20
2022-11-05T07:01:16.677Z,19.48
2022-11-05T07:03:48.972Z,19.74
2022-11-05T07:06:17.083Z,19.90
2022-11-05T07:08:44.999Z,20.06
2022-11-05T07:11:13.798Z,20.12
2022-11-05T07:13:41.946Z,20.07
2022-11-05T07:16:11.924Z,20.04
2022-11-05T07:18:40.268Z,19.94
2022-11-05T07:21:08.644Z,19.94
2022-11-05T07:23:37.656Z,20.23
2022-11-05T07:26:05.808Z,20.23
2022-11-05T07:28:34.023Z,20.10
2022-11-05T07:31:03.954Z,19.83
2022-11-05T07:33:36.275Z,19.70
2022-11-05T07:36:06.075Z,19.48
2022-11-05T07:38:34.411Z,19.42
2022-11-05T07:41:03.036Z,19.62
2022-11-05T07:43:31.796Z,19.53
2022-11-05T07:46:11.163Z,19.73
2022-11-05T07:48:42.780Z,19.47
2022-11-05T07:51:12.279Z,19.91
2022-11-05T07:53:45.430Z,20.03
2022-11-05T07:56:15.511Z,19.76
2022-11-05T07:58:44.546Z,20.17
2022-11-05T08:01:13.687Z,20.58
2022-11-05T08:03:42.346Z,20.82
2022-11-05T08:06:10.661Z,21.23
2022-11-05T09:41:39.209Z,21.69
2022-11-05T09:44:20.140Z,21.82
2022-11-05T09:47:04.313Z,21.68
2022-11-05T09:49:41.836Z,21.02
2022-11-05T09:52:31.667Z,20.62
2022-11-05T09:59:59.043Z,19.84
2022-11-05T10:02:49.777Z,19.46
2022-11-05T10:05:20.214Z,19.47
2022-11-05T10:08:02.045Z,19.33
2022-11-05T10:11:01.758Z,18.98
2022-11-05T10:13:38.422Z,18.79
2022-11-05T11:14:12.332Z,19.77
2022-11-05T11:17:01.420Z,19.62
2022-11-05T11:19:37.684Z,19.58
2022-11-05T11:22:06.264Z,19.74
2022-11-05T11:24:54.271Z,19.80
2022-11-05T11:27:29.826Z,19.92
2022-11-05T11:30:02.799Z,19.81
2022-11-05T11:32:39.159Z,19.70
2022-11-05T11:35:24.994Z,19.57
2022-11-05T11:37:56.087Z,19.69
2022-11-05T11:40:35.538Z,19.52
2022-11-05T11:43:28.133Z,19.66
2022-11-05T11:46:04.821Z,19.63
2022-11-05T11:48:37.176Z,19.65
2022-11-05T11:51:20.504Z,19.76
2022-11-05T11:53:50.061Z,19.76
2022-11-05T11:56:20.854Z,19.79
2022-11-05T11:58:53.822Z,19.66
2022-11-05T13:24:54.731Z,19.06
2022-11-05T13:27:44.938Z,19.06
2022-11-05T13:30:23.886Z,19.00
2022-11-05T13:33:07.207Z,18.96
2022-11-05T13:36:17.214Z,18.97
2022-11-05T13:39:15.169Z,18.87
2022-11-05T13:42:11.442Z,18.91
2022-11-05T13:45:11.895Z,18.88
2022-11-05T13:47:43.626Z,18.64
2022-11-05T13:50:43.062Z,18.70
2022-11-05T13:53:11.954Z,18.72
2022-11-05T13:56:08.067Z,18.72
2022-11-05T13:59:00.920Z,18.73
2022-11-05T14:01:57.253Z,18.76
2022-11-05T14:04:37.142Z,18.77
2022-11-05T14:44:13.696Z,18.24
2022-11-05T14:46:46.031Z,18.17
2022-11-05T14:49:22.154Z,18.16
2022-11-05T14:51:54.040Z,18.11
2022-11-05T14:54:27.754Z,18.03
2022-11-05T14:56:59.388Z,17.91
2022-11-05T14:59:28.387Z,17.69
2022-11-05T15:02:03.468Z,17.57
2022-11-05T15:04:45.910Z,17.39
2022-11-05T15:07:23.333Z,17.22
2022-11-05T15:09:54.653Z,17.07
2022-11-05T15:12:56.852Z,16.96
2022-11-05T15:15:33.102Z,16.85
2022-11-05T15:18:18.695Z,16.71
2022-11-05T15:20:49.886Z,16.60
2022-11-05T15:23:24.440Z,16.45
2022-11-05T15:26:04.521Z,16.34
2022-11-05T15:28:38.192Z,16.19
2022-11-05T15:31:41.747Z,16.09
2022-11-05T15:34:27.054Z,16.01
2022-11-05T15:37:03.482Z,15.92
2022-11-05T15:39:44.241Z,15.84
2022-11-05T15:42:15.717Z,15.78
2022-11-05T15:44:50.548Z,15.67
2022-11-05T15:50:30.320Z,15.57
2022-11-05T15:53:14.457Z,15.48
2022-11-05T15:55:55.093Z,15.43
2022-11-05T15:58:23.309Z,15.36
2022-11-05T16:00:51.491Z,15.35
2022-11-05T16:03:39.736Z,15.32
2022-11-05T16:06:09.917Z,15.26
2022-11-05T16:08:38.636Z,15.22
2022-11-05T16:11:07.179Z,15.17
2022-11-05T16:13:41.918Z,15.16
2022-11-05T16:16:16.383Z,15.13
2022-11-05T16:18:45.822Z,15.04
2022-11-05T16:21:22.981Z,15.02
2022-11-05T16:23:58.698Z,15.05
2022-11-05T16:29:28.379Z,15.10
2022-11-05T16:31:59.673Z,15.06
2022-11-05T16:34:40.030Z,15.08
2022-11-05T16:37:13.721Z,15.02
2022-11-05T16:39:42.304Z,15.01
2022-11-05T16:42:34.521Z,15.01
2022-11-05T16:45:03.683Z,15.03
2022-11-05T16:47:32.476Z,15.04
2022-11-05T16:50:01.189Z,15.06
2022-11-05T16:52:33.625Z,15.14
2022-11-05T16:55:02.461Z,15.14
2022-11-05T16:57:33.571Z,15.13
2022-11-05T17:00:02.476Z,15.21
2022-11-05T17:02:31.291Z,15.20
2022-11-05T17:04:59.908Z,15.18
2022-11-05T17:07:29.462Z,15.20
2022-11-05T17:09:58.277Z,15.24
2022-11-05T17:12:26.945Z,15.26
2022-11-05T17:14:55.659Z,15.25
2022-11-05T17:17:24.450Z,15.21
2022-11-05T17:19:53.275Z,15.24
2022-11-05T17:22:22.616Z,15.26
2022-11-05T17:24:51.186Z,15.26
2022-11-05T17:27:20.229Z,15.26
2022-11-05T17:29:48.627Z,15.27
2022-11-05T17:32:16.980Z,15.28
2022-11-05T17:34:46.749Z,15.29
2022-11-05T17:37:16.234Z,15.35
2022-11-05T17:39:45.053Z,15.30
2022-11-05T17:42:15.828Z,15.28
2022-11-05T17:44:45.021Z,15.22
2022-11-05T17:47:13.863Z,15.35
2022-11-05T17:49:42.913Z,15.34
2022-11-05T17:52:12.234Z,15.33
2022-11-05T17:54:40.750Z,15.33
2022-11-05T17:57:09.361Z,15.31
2022-11-05T17:59:38.549Z,15.32
2022-11-05T18:02:07.570Z,15.28
2022-11-05T18:04:36.921Z,15.36
2022-11-05T18:07:06.388Z,15.38
2022-11-05T18:09:35.464Z,15.41
2022-11-05T18:12:05.517Z,15.48
2022-11-05T18:14:34.381Z,15.46
2022-11-05T18:17:02.919Z,15.57
2022-11-05T18:19:31.363Z,15.57
2022-11-05T18:22:00.261Z,15.58
2022-11-05T18:24:28.750Z,15.56
2022-11-05T18:26:57.289Z,15.57
2022-11-05T18:29:25.990Z,15.55
2022-11-05T18:31:54.846Z,15.61
2022-11-05T18:34:23.530Z,15.54
2022-11-05T18:36:56.380Z,15.50
2022-11-05T18:39:25.509Z,15.54
2022-11-05T18:41:54.300Z,15.54
2022-11-05T18:44:24.948Z,15.54
2022-11-05T18:47:00.356Z,15.59
2022-11-05T18:49:28.844Z,15.65
2022-11-05T18:51:57.694Z,15.61
2022-11-05T18:54:26.258Z,15.61
2022-11-05T18:56:54.692Z,15.58
2022-11-05T18:59:36.919Z,15.55
2022-11-05T19:02:08.883Z,15.55
2022-11-05T19:04:50.509Z,15.56
2022-11-05T19:07:29.835Z,15.51
2022-11-05T19:09:58.479Z,15.55
2022-11-05T19:12:27.442Z,15.54
2022-11-05T19:15:01.949Z,15.53
2022-11-05T19:17:33.626Z,15.53
2022-11-05T19:20:02.695Z,15.53
2022-11-05T19:22:32.535Z,15.54
2022-11-05T19:25:01.876Z,15.52
2022-11-05T19:27:31.161Z,15.48
2022-11-05T19:29:59.629Z,15.54
2022-11-05T19:32:28.381Z,15.50
2022-11-05T19:34:57.834Z,15.41
2022-11-05T19:37:26.601Z,15.44
2022-11-05T19:39:55.038Z,15.43
2022-11-05T19:42:23.702Z,15.40
2022-11-05T19:44:51.935Z,15.30
2022-11-05T19:47:20.307Z,15.36
2022-11-05T19:49:48.623Z,15.34
2022-11-05T19:52:17.094Z,15.35
2022-11-05T19:54:46.149Z,15.27
2022-11-05T19:57:14.345Z,15.35
2022-11-05T19:59:42.565Z,15.33
2022-11-05T20:02:16.060Z,15.36
2022-11-05T20:04:45.092Z,15.34
2022-11-05T20:07:13.575Z,15.27
2022-11-05T20:09:41.915Z,15.28
2022-11-05T20:12:10.256Z,15.28
2022-11-05T20:14:39.067Z,15.30
2022-11-05T20:17:08.491Z,15.33
2022-11-05T20:19:37.172Z,15.21
2022-11-05T20:22:05.946Z,15.18
2022-11-05T20:24:34.813Z,15.18
2022-11-05T20:27:03.476Z,15.15
2022-11-05T20:29:35.743Z,15.13
2022-11-05T20:32:04.655Z,15.13
2022-11-05T20:34:34.737Z,15.15
2022-11-05T20:37:04.381Z,15.10
2022-11-05T20:39:33.481Z,15.12
2022-11-05T20:42:02.175Z,15.13
2022-11-05T20:44:31.715Z,15.11
2022-11-05T20:47:00.665Z,15.06
2022-11-05T20:49:29.319Z,15.06
2022-11-05T20:51:58.783Z,15.06
2022-11-05T20:54:27.645Z,15.00
2022-11-05T20:56:56.154Z,15.05
2022-11-05T20:59:24.748Z,15.04
2022-11-05T21:01:53.842Z,15.07
2022-11-05T21:04:23.295Z,14.92
2022-11-05T21:06:53.655Z,14.96
2022-11-05T21:09:23.161Z,14.93
2022-11-05T21:12:09.970Z,14.90
2022-11-05T21:14:40.030Z,15.00
2022-11-05T21:17:11.885Z,14.97
2022-11-05T21:19:40.774Z,14.95
2022-11-05T21:22:15.835Z,15.01
2022-11-05T21:24:44.950Z,14.86
2022-11-05T21:27:13.608Z,14.93
2022-11-05T21:29:43.454Z,14.91
2022-11-05T21:32:14.204Z,14.94
2022-11-05T21:34:43.072Z,14.90
2022-11-05T21:37:11.728Z,14.88
2022-11-05T21:39:40.595Z,14.89
2022-11-05T21:42:08.659Z,14.87
2022-11-05T21:44:36.494Z,14.81
2022-11-05T21:47:05.093Z,14.77
2022-11-05T21:49:35.094Z,14.84
2022-11-05T21:52:21.472Z,14.91
2022-11-05T21:55:08.065Z,14.86
2022-11-05T21:57:54.436Z,14.71
2022-11-05T22:00:22.354Z,14.65
2022-11-05T22:02:50.374Z,14.58
2022-11-05T22:05:18.856Z,14.60
2022-11-05T22:07:46.940Z,14.65
2022-11-05T22:10:16.512Z,14.73
2022-11-05T22:12:45.899Z,14.63
2022-11-05T22:15:14.421Z,14.60
2022-11-05T22:17:46.439Z,14.58
2022-11-05T22:20:16.185Z,14.60
2022-11-05T22:22:44.866Z,14.61
2022-11-05T22:25:13.735Z,14.58
2022-11-05T22:27:43.667Z,14.57
2022-11-05T22:30:13.480Z,14.58
2022-11-05T22:32:41.591Z,14.62
2022-11-05T22:35:09.802Z,14.64
2022-11-05T22:37:37.868Z,14.64
2022-11-05T22:40:06.676Z,14.53
2022-11-05T22:42:34.899Z,14.51
2022-11-05T22:45:03.035Z,14.47
2022-11-05T22:47:30.939Z,14.43
2022-11-05T22:49:58.890Z,14.35
2022-11-05T22:52:27.012Z,14.43
2022-11-05T22:54:54.934Z,14.47
2022-11-05T22:57:22.907Z,14.50
2022-11-05T22:59:50.737Z,14.49
2022-11-05T23:02:19.214Z,14.46
2022-11-05T23:04:48.956Z,14.40
2022-11-05T23:07:36.158Z,14.49
2022-11-05T23:10:22.607Z,14.47
2022-11-05T23:12:50.619Z,14.48
2022-11-05T23:15:37.175Z,14.40
2022-11-05T23:18:24.008Z,14.41
2022-11-05T23:21:10.501Z,14.35
2022-11-05T23:23:56.946Z,14.42
2022-11-05T23:26:43.386Z,14.47
2022-11-05T23:29:11.375Z,14.42
2022-11-05T23:31:58.047Z,14.41
2022-11-05T23:34:26.078Z,14.39
2022-11-05T23:37:12.612Z,14.31
2022-11-05T23:39:42.868Z,14.25
2022-11-05T23:42:29.916Z,14.36
2022-11-05T23:45:16.683Z,14.32
2022-11-05T23:48:03.157Z,14.33
2022-11-05T23:50:35.612Z,14.37
2022-11-05T23:53:07.965Z,14.38
2022-11-05T23:55:36.270Z,14.30
2022-11-05T23:58:04.470Z,14.23
